Time;durP1;ratioP1;P1;durP2;ratioP2;P2;SDS_P1;SDS_P2;PMS_P1;PMS_P2;Temp;Humidity;BMP_temperature;BMP_pressure;BME280_temperature;BME280_humidity;BME280_pressure;Samples;Min_cycle;Max_cycle;Signal;HPM_P1;HPM_P2
2023/11/22 00:01:53;;;;;;;8.30;3.38;;;;;;;;;;4995798;28;20069;-65
2023/11/22 00:04:20;;;;;;;8.05;3.55;;;;;;;;;;4992528;28;20054;-67
2023/11/22 00:06:47;;;;;;;10.30;4.63;;;;;;;;;;4984473;28;20085;-65
2023/11/22 00:09:14;;;;;;;10.90;4.00;;;;;;;;;;4985542;28;20105;-66
2023/11/22 00:11:42;;;;;;;9.48;4.75;;;;;;;;;;4994238;28;20082;-66
2023/11/22 00:14:09;;;;;;;9.32;3.83;;;;;;;;;;4997672;28;20149;-66
2023/11/22 00:16:37;;;;;;;10.43;4.57;;;;;;;;;;4991652;28;20136;-65
2023/11/22 00:19:05;;;;;;;8.88;3.67;;;;;;;;;;4986309;28;20071;-66
2023/11/22 00:21:31;;;;;;;8.70;3.90;;;;;;;;;;4981387;28;20077;-65
2023/11/22 00:23:58;;;;;;;13.25;4.47;;;;;;;;;;4979910;28;20133;-65
2023/11/22 00:26:25;;;;;;;10.43;4.05;;;;;;;;;;4980602;28;20094;-66
2023/11/22 00:28:54;;;;;;;9.63;4.03;;;;;;;;;;4983744;28;20065;-65
2023/11/22 00:31:20;;;;;;;9.50;4.10;;;;;;;;;;4981430;28;20089;-66
2023/11/22 00:33:47;;;;;;;8.48;4.18;;;;;;;;;;4995497;28;20056;-65
2023/11/22 00:36:14;;;;;;;10.32;3.72;;;;;;;;;;4971628;28;20105;-67
2023/11/22 00:38:40;;;;;;;9.43;3.92;;;;;;;;;;4981127;28;20189;-66
2023/11/22 00:41:11;;;;;;;10.13;3.97;;;;;;;;;;4983424;28;20054;-66
2023/11/22 00:43:38;;;;;;;10.48;4.38;;;;;;;;;;4979967;28;20054;-66
2023/11/22 00:46:08;;;;;;;10.13;4.40;;;;;;;;;;4980510;28;20058;-69
2023/11/22 00:48:35;;;;;;;9.30;4.10;;;;;;;;;;4978352;28;20140;-68
2023/11/22 00:51:08;;;;;;;10.13;4.30;;;;;;;;;;4979325;28;20050;-65
2023/11/22 00:53:35;;;;;;;11.02;4.38;;;;;;;;;;4979913;28;20161;-66
2023/11/22 00:56:03;;;;;;;8.75;4.10;;;;;;;;;;4973352;28;20061;-65
2023/11/22 00:58:30;;;;;;;11.23;4.75;;;;;;;;;;4974113;28;21267;-66
2023/11/22 01:00:57;;;;;;;9.23;3.97;;;;;;;;;;4980465;28;20050;-66
2023/11/22 01:03:25;;;;;;;9.93;3.90;;;;;;;;;;5001540;28;20070;-66
2023/11/22 01:05:52;;;;;;;9.40;3.88;;;;;;;;;;4985954;28;20136;-65
2023/11/22 01:08:19;;;;;;;11.32;4.53;;;;;;;;;;4993814;28;20054;-65
2023/11/22 01:10:46;;;;;;;11.00;4.22;;;;;;;;;;5000656;28;20058;-68
2023/11/22 01:13:14;;;;;;;9.43;3.85;;;;;;;;;;5014886;28;20045;-65
2023/11/22 01:15:41;;;;;;;8.98;4.15;;;;;;;;;;5014316;28;20054;-66
2023/11/22 01:18:08;;;;;;;11.13;4.55;;;;;;;;;;4997674;28;20065;-65
2023/11/22 01:20:36;;;;;;;8.63;4.15;;;;;;;;;;4997444;28;20128;-66
2023/11/22 01:23:03;;;;;;;9.48;4.18;;;;;;;;;;5000238;28;20065;-66
2023/11/22 01:25:30;;;;;;;8.45;4.10;;;;;;;;;;4987320;28;20058;-66
2023/11/22 01:27:56;;;;;;;7.85;4.03;;;;;;;;;;4985864;28;20101;-65
2023/11/22 01:30:23;;;;;;;10.02;4.70;;;;;;;;;;4989142;28;20054;-66
2023/11/22 01:32:50;;;;;;;9.70;4.18;;;;;;;;;;4982322;28;20145;-65
2023/11/22 01:35:17;;;;;;;10.88;4.50;;;;;;;;;;4991552;28;20065;-65
2023/11/22 01:37:45;;;;;;;10.68;3.55;;;;;;;;;;4980007;28;20061;-66
2023/11/22 01:40:12;;;;;;;10.07;4.30;;;;;;;;;;4993021;28;20058;-65
2023/11/22 01:42:40;;;;;;;9.10;4.03;;;;;;;;;;4981355;28;20076;-65
2023/11/22 01:45:07;;;;;;;10.25;4.63;;;;;;;;;;4975606;28;20064;-66
2023/11/22 01:47:35;;;;;;;11.70;4.47;;;;;;;;;;4997746;28;20069;-66
2023/11/22 01:50:05;;;;;;;9.60;4.15;;;;;;;;;;4979386;28;20121;-65
2023/11/22 01:52:32;;;;;;;15.02;5.43;;;;;;;;;;4976795;28;20066;-66
2023/11/22 01:55:01;;;;;;;10.73;4.85;;;;;;;;;;4975271;28;20054;-65
2023/11/22 01:57:28;;;;;;;14.73;4.60;;;;;;;;;;4980584;28;20054;-65
2023/11/22 01:59:55;;;;;;;14.48;5.05;;;;;;;;;;4977938;28;20065;-66
2023/11/22 02:02:22;;;;;;;9.70;4.47;;;;;;;;;;4971368;28;20216;-66
2023/11/22 02:04:49;;;;;;;10.70;4.65;;;;;;;;;;4979675;28;20071;-66
2023/11/22 02:07:16;;;;;;;10.05;4.28;;;;;;;;;;4980666;28;20077;-66
2023/11/22 02:09:43;;;;;;;9.75;4.40;;;;;;;;;;4977903;28;20504;-66
2023/11/22 02:12:12;;;;;;;10.25;3.97;;;;;;;;;;4979571;28;20116;-67
2023/11/22 02:14:39;;;;;;;11.32;4.57;;;;;;;;;;4998535;28;20049;-66
2023/11/22 02:17:06;;;;;;;9.15;4.30;;;;;;;;;;5019481;28;20057;-66
2023/11/22 02:19:32;;;;;;;12.20;4.70;;;;;;;;;;5014504;28;20050;-66
2023/11/22 02:22:00;;;;;;;11.60;4.30;;;;;;;;;;4999664;28;20053;-64
2023/11/22 02:24:28;;;;;;;10.13;4.18;;;;;;;;;;4989765;28;20349;-66
2023/11/22 02:26:55;;;;;;;10.02;4.43;;;;;;;;;;4988782;28;20069;-65
2023/11/22 02:29:22;;;;;;;11.27;4.28;;;;;;;;;;5000963;28;20073;-68
2023/11/22 02:31:50;;;;;;;8.60;4.57;;;;;;;;;;4996554;28;20053;-67
2023/11/22 02:34:17;;;;;;;10.88;4.97;;;;;;;;;;4990871;28;20053;-69
2023/11/22 02:36:44;;;;;;;8.90;4.30;;;;;;;;;;4983879;28;20076;-67
2023/11/22 02:39:13;;;;;;;10.05;4.20;;;;;;;;;;5003477;28;20133;-67
2023/11/22 02:41:41;;;;;;;11.75;4.32;;;;;;;;;;4997769;28;20152;-68
2023/11/22 02:44:08;;;;;;;10.98;3.97;;;;;;;;;;5000107;28;20061;-65
2023/11/22 02:46:35;;;;;;;11.02;4.03;;;;;;;;;;4992421;28;20062;-65
2023/11/22 02:49:02;;;;;;;8.85;4.20;;;;;;;;;;5012943;28;20064;-67
2023/11/22 02:51:29;;;;;;;11.57;4.47;;;;;;;;;;5004778;28;20049;-65
2023/11/22 02:53:56;;;;;;;9.18;4.13;;;;;;;;;;4997562;28;20058;-65
2023/11/22 02:56:23;;;;;;;9.98;4.35;;;;;;;;;;4986244;28;20523;-65
2023/11/22 02:58:51;;;;;;;8.73;3.92;;;;;;;;;;4997116;28;20255;-65
2023/11/22 03:01:17;;;;;;;8.07;3.72;;;;;;;;;;4999279;28;20568;-65
2023/11/22 03:03:44;;;;;;;10.07;4.43;;;;;;;;;;4976849;28;20058;-65
2023/11/22 03:06:12;;;;;;;11.30;4.68;;;;;;;;;;4974653;28;20144;-69
2023/11/22 03:08:38;;;;;;;10.77;4.53;;;;;;;;;;4995592;28;20073;-66
2023/11/22 03:11:06;;;;;;;10.30;4.30;;;;;;;;;;4979699;28;20084;-65
2023/11/22 03:13:33;;;;;;;10.98;4.20;;;;;;;;;;4966252;28;20054;-64
2023/11/22 03:16:03;;;;;;;9.65;4.13;;;;;;;;;;4992390;28;20088;-66
2023/11/22 03:18:31;;;;;;;8.60;3.80;;;;;;;;;;4971398;28;20169;-64
2023/11/22 03:20:57;;;;;;;9.07;3.60;;;;;;;;;;4972980;28;20053;-65
2023/11/22 03:23:26;;;;;;;9.02;4.15;;;;;;;;;;4967329;28;20055;-66
2023/11/22 03:25:52;;;;;;;10.60;4.63;;;;;;;;;;5008498;28;20145;-65
2023/11/22 03:28:19;;;;;;;9.93;3.85;;;;;;;;;;4970733;28;20050;-65
2023/11/22 03:30:46;;;;;;;9.85;4.15;;;;;;;;;;4979986;28;20054;-65
2023/11/22 03:33:14;;;;;;;7.55;3.92;;;;;;;;;;4977974;28;20050;-65
2023/11/22 03:35:42;;;;;;;10.30;4.60;;;;;;;;;;5005421;28;20130;-68
2023/11/22 03:38:09;;;;;;;9.10;4.18;;;;;;;;;;4972833;28;20145;-65
2023/11/22 03:40:35;;;;;;;8.82;4.35;;;;;;;;;;4977575;28;20058;-67
2023/11/22 03:43:02;;;;;;;9.40;3.83;;;;;;;;;;4978411;28;20054;-66
2023/11/22 03:45:29;;;;;;;9.07;3.60;;;;;;;;;;4963803;28;20065;-66
2023/11/22 03:47:55;;;;;;;11.35;4.22;;;;;;;;;;4978606;28;20066;-67
2023/11/22 03:50:23;;;;;;;7.82;3.42;;;;;;;;;;5000723;28;20330;-65
2023/11/22 03:52:50;;;;;;;8.00;3.58;;;;;;;;;;4983405;28;20137;-65
2023/11/22 03:55:17;;;;;;;9.95;3.97;;;;;;;;;;4976455;28;20050;-65
2023/11/22 03:57:44;;;;;;;8.75;3.65;;;;;;;;;;4996092;28;20046;-65
2023/11/22 04:00:15;;;;;;;9.52;4.30;;;;;;;;;;4989740;28;20162;-66
2023/11/22 04:02:41;;;;;;;10.82;4.45;;;;;;;;;;4983023;28;20054;-66
2023/11/22 04:05:11;;;;;;;11.10;4.03;;;;;;;;;;4978166;28;20054;-66
2023/11/22 04:07:39;;;;;;;9.25;3.92;;;;;;;;;;4985126;28;20145;-66
2023/11/22 04:10:07;;;;;;;7.50;3.45;;;;;;;;;;4981848;28;20105;-66
2023/11/22 04:12:33;;;;;;;9.25;4.32;;;;;;;;;;4978167;28;20054;-66
2023/11/22 04:15:00;;;;;;;9.77;4.13;;;;;;;;;;4975634;28;20054;-65
2023/11/22 04:17:27;;;;;;;8.27;4.28;;;;;;;;;;4982012;28;20050;-65
2023/11/22 04:19:53;;;;;;;8.38;3.60;;;;;;;;;;4980057;28;20076;-66
2023/11/22 04:22:20;;;;;;;8.43;4.07;;;;;;;;;;4974975;28;20046;-65
2023/11/22 04:24:48;;;;;;;9.43;4.43;;;;;;;;;;4978395;28;20076;-66
2023/11/22 04:27:16;;;;;;;9.68;4.32;;;;;;;;;;4986891;28;20057;-65
2023/11/22 04:29:42;;;;;;;10.70;4.10;;;;;;;;;;4981937;28;20055;-65
2023/11/22 04:32:10;;;;;;;6.40;3.13;;;;;;;;;;4974869;28;20150;-66
2023/11/22 04:34:37;;;;;;;9.20;3.90;;;;;;;;;;4977102;28;20141;-65
2023/11/22 04:37:05;;;;;;;9.10;3.95;;;;;;;;;;4980332;28;20059;-66
2023/11/22 04:39:32;;;;;;;14.13;4.53;;;;;;;;;;4980760;28;20057;-65
2023/11/22 04:42:01;;;;;;;7.78;3.45;;;;;;;;;;4981400;28;20054;-65
2023/11/22 04:44:27;;;;;;;10.40;3.83;;;;;;;;;;4985126;28;20081;-65
2023/11/22 04:46:54;;;;;;;8.93;3.47;;;;;;;;;;5007531;28;20049;-65
2023/11/22 04:49:21;;;;;;;7.75;3.78;;;;;;;;;;4999999;28;20057;-66
2023/11/22 04:51:49;;;;;;;8.93;3.88;;;;;;;;;;5004162;28;20425;-65
2023/11/22 04:54:18;;;;;;;9.00;4.07;;;;;;;;;;4987701;28;20069;-66
2023/11/22 04:56:45;;;;;;;7.95;3.63;;;;;;;;;;4999802;28;20084;-65
2023/11/22 04:59:13;;;;;;;9.35;4.20;;;;;;;;;;4999917;28;20085;-65
2023/11/22 05:01:40;;;;;;;10.43;3.92;;;;;;;;;;5006272;28;20078;-65
2023/11/22 05:04:07;;;;;;;8.25;3.65;;;;;;;;;;4967832;28;20055;-66
2023/11/22 05:06:33;;;;;;;11.50;4.05;;;;;;;;;;4960426;28;20059;-65
2023/11/22 05:09:00;;;;;;;11.68;4.20;;;;;;;;;;4973078;28;20073;-65
2023/11/22 05:11:27;;;;;;;8.60;3.85;;;;;;;;;;4979239;28;20081;-65
2023/11/22 05:13:54;;;;;;;9.95;4.13;;;;;;;;;;4975572;28;20056;-65
2023/11/22 05:16:23;;;;;;;10.38;3.72;;;;;;;;;;4977326;28;20058;-65
2023/11/22 05:18:50;;;;;;;9.13;3.90;;;;;;;;;;4981684;28;20105;-65
2023/11/22 05:21:16;;;;;;;9.68;4.18;;;;;;;;;;4980846;28;20058;-65
2023/11/22 05:23:43;;;;;;;7.78;3.38;;;;;;;;;;4976542;28;20073;-65
2023/11/22 05:26:09;;;;;;;8.18;3.55;;;;;;;;;;4972254;28;20062;-65
2023/11/22 05:28:36;;;;;;;9.93;4.00;;;;;;;;;;4983885;28;20046;-65
2023/11/22 05:31:03;;;;;;;9.18;3.60;;;;;;;;;;4995844;28;20146;-65
2023/11/22 05:33:32;;;;;;;8.98;3.97;;;;;;;;;;4977077;28;20059;-67
2023/11/22 05:36:01;;;;;;;9.88;4.30;;;;;;;;;;4990652;28;20110;-67
2023/11/22 05:38:28;;;;;;;8.90;3.65;;;;;;;;;;4959116;28;20054;-66
2023/11/22 05:40:55;;;;;;;11.15;4.88;;;;;;;;;;4961652;28;20074;-65
2023/11/22 05:43:25;;;;;;;10.88;4.22;;;;;;;;;;4959955;28;20061;-65
2023/11/22 05:45:52;;;;;;;11.43;4.03;;;;;;;;;;4972295;28;20050;-65
2023/11/22 05:48:18;;;;;;;9.10;4.05;;;;;;;;;;4993659;28;20050;-65
2023/11/22 05:50:47;;;;;;;8.90;4.03;;;;;;;;;;4993390;28;20054;-65
2023/11/22 05:53:19;;;;;;;8.95;3.63;;;;;;;;;;4995381;28;20061;-65
2023/11/22 05:55:46;;;;;;;8.15;3.80;;;;;;;;;;4996903;28;20126;-66
2023/11/22 05:58:16;;;;;;;9.27;3.88;;;;;;;;;;5013382;28;20049;-66
2023/11/22 06:00:44;;;;;;;9.15;4.07;;;;;;;;;;5010746;28;20091;-68
2023/11/22 06:03:11;;;;;;;9.25;3.78;;;;;;;;;;5019649;28;20146;-65
2023/11/22 06:05:37;;;;;;;10.50;4.10;;;;;;;;;;5016688;28;20056;-66
2023/11/22 06:08:06;;;;;;;7.93;3.50;;;;;;;;;;5014186;28;20049;-66
2023/11/22 06:10:33;;;;;;;10.05;4.30;;;;;;;;;;5010507;28;20057;-65
2023/11/22 06:13:00;;;;;;;14.13;4.20;;;;;;;;;;5015584;28;20149;-65
2023/11/22 06:15:27;;;;;;;10.57;4.03;;;;;;;;;;5011750;28;20113;-65
2023/11/22 06:17:53;;;;;;;8.90;3.67;;;;;;;;;;5015183;28;20053;-66
2023/11/22 06:20:21;;;;;;;8.90;3.65;;;;;;;;;;5007314;28;20235;-66
2023/11/22 06:22:48;;;;;;;10.23;3.90;;;;;;;;;;5013597;28;20188;-65
2023/11/22 06:25:16;;;;;;;9.63;4.35;;;;;;;;;;5023760;28;20136;-65
2023/11/22 06:27:43;;;;;;;10.80;4.45;;;;;;;;;;5017416;28;20045;-65
2023/11/22 06:30:14;;;;;;;12.70;4.85;;;;;;;;;;5003442;28;20034;-65
2023/11/22 06:32:42;;;;;;;11.60;4.80;;;;;;;;;;4996976;28;20049;-65
2023/11/22 06:35:11;;;;;;;23.13;8.47;;;;;;;;;;4991924;28;20060;-65
2023/11/22 06:37:38;;;;;;;21.95;9.70;;;;;;;;;;4997562;28;20415;-65
2023/11/22 06:40:06;;;;;;;32.17;13.27;;;;;;;;;;5011921;28;20124;-66
2023/11/22 06:42:34;;;;;;;21.53;8.87;;;;;;;;;;5004195;28;20062;-65
2023/11/22 06:45:02;;;;;;;17.92;6.55;;;;;;;;;;4993024;28;20320;-66
2023/11/22 06:47:28;;;;;;;11.80;4.82;;;;;;;;;;4998758;28;20061;-65
2023/11/22 06:49:55;;;;;;;13.43;4.43;;;;;;;;;;4999396;28;20062;-65
2023/11/22 06:52:22;;;;;;;13.73;4.70;;;;;;;;;;4994857;28;20097;-65
2023/11/22 06:54:48;;;;;;;10.40;4.40;;;;;;;;;;4992828;28;20057;-65
2023/11/22 06:57:15;;;;;;;11.60;4.47;;;;;;;;;;5001188;28;20060;-65
2023/11/22 06:59:43;;;;;;;9.93;4.25;;;;;;;;;;4997071;28;20073;-67
2023/11/22 07:02:10;;;;;;;11.98;4.53;;;;;;;;;;5005276;28;20112;-67
2023/11/22 07:04:37;;;;;;;11.82;4.97;;;;;;;;;;5026241;28;20054;-66
2023/11/22 07:07:05;;;;;;;13.05;5.57;;;;;;;;;;4996771;28;20058;-67
2023/11/22 07:09:32;;;;;;;13.32;4.93;;;;;;;;;;4999288;28;20046;-67
2023/11/22 07:12:02;;;;;;;13.13;4.73;;;;;;;;;;5000437;28;20520;-65
2023/11/22 07:14:30;;;;;;;15.95;6.25;;;;;;;;;;4986560;28;21226;-65
2023/11/22 07:16:58;;;;;;;18.17;7.35;;;;;;;;;;4997191;28;20077;-67
2023/11/22 07:19:24;;;;;;;11.57;5.40;;;;;;;;;;4996962;28;20119;-66
2023/11/22 07:21:51;;;;;;;14.90;6.57;;;;;;;;;;4999834;28;20054;-67
2023/11/22 07:24:20;;;;;;;;;;;;;;;;;;4988956;28;20277;-65
2023/11/22 07:26:48;;;;;;;12.38;4.20;;;;;;;;;;5002001;28;19991;-65
2023/11/22 07:29:15;;;;;;;11.48;4.85;;;;;;;;;;5001354;28;20127;-65
2023/11/22 07:31:42;;;;;;;11.50;4.65;;;;;;;;;;5000158;28;20518;-64
2023/11/22 07:34:11;;;;;;;11.65;4.53;;;;;;;;;;4990488;28;20050;-66
2023/11/22 07:36:38;;;;;;;;;;;;;;;;;;5002466;28;20073;-64
2023/11/22 07:39:04;;;;;;;10.43;4.30;;;;;;;;;;4999964;28;19929;-65
2023/11/22 07:41:34;;;;;;;16.52;5.03;;;;;;;;;;5002228;28;20093;-64
2023/11/22 07:44:02;;;;;;;12.70;4.72;;;;;;;;;;4980357;28;20057;-66
2023/11/22 07:46:29;;;;;;;12.15;4.78;;;;;;;;;;4978856;28;20163;-64
2023/11/22 07:48:55;;;;;;;13.55;4.88;;;;;;;;;;4980820;28;20050;-64
2023/11/22 07:51:25;;;;;;;12.82;5.25;;;;;;;;;;4980505;28;20050;-64
2023/11/22 07:53:51;;;;;;;12.48;4.97;;;;;;;;;;4975190;28;20106;-64
2023/11/22 07:56:20;;;;;;;12.35;4.85;;;;;;;;;;4990154;28;20122;-64
2023/11/22 07:58:47;;;;;;;16.15;7.10;;;;;;;;;;4992050;28;20053;-64
2023/11/22 08:01:18;;;;;;;27.00;9.65;;;;;;;;;;4981673;28;20133;-65
2023/11/22 08:03:45;;;;;;;32.53;13.82;;;;;;;;;;4976431;28;20066;-64
2023/11/22 08:06:12;;;;;;;17.17;7.00;;;;;;;;;;4978353;28;20081;-65
2023/11/22 08:08:41;;;;;;;23.67;9.95;;;;;;;;;;4980771;28;20055;-65
2023/11/22 08:11:14;;;;;;;16.67;6.85;;;;;;;;;;4981838;28;20065;-67
2023/11/22 08:13:44;;;;;;;11.27;5.20;;;;;;;;;;4974315;28;20050;-66
2023/11/22 08:16:12;;;;;;;15.27;6.18;;;;;;;;;;4978483;28;20104;-67
2023/11/22 08:18:40;;;;;;;16.38;5.90;;;;;;;;;;4980953;28;20057;-66
2023/11/22 08:21:09;;;;;;;14.05;5.40;;;;;;;;;;4983082;28;20066;-65
2023/11/22 08:23:36;;;;;;;12.93;5.53;;;;;;;;;;4978263;28;20058;-65
2023/11/22 08:26:08;;;;;;;11.85;4.95;;;;;;;;;;5012801;28;20112;-65
2023/11/22 08:28:35;;;;;;;12.30;5.28;;;;;;;;;;4999032;28;20084;-64
2023/11/22 08:31:04;;;;;;;12.18;5.50;;;;;;;;;;5005781;28;20192;-64
2023/11/22 08:33:30;;;;;;;14.40;5.30;;;;;;;;;;4996555;28;20038;-65
2023/11/22 08:36:00;;;;;;;13.35;5.65;;;;;;;;;;4998335;28;20061;-64
2023/11/22 08:38:27;;;;;;;10.50;5.13;;;;;;;;;;4998032;28;20066;-64
2023/11/22 08:40:55;;;;;;;12.02;5.05;;;;;;;;;;4999632;28;20149;-64
2023/11/22 08:43:24;;;;;;;13.18;5.53;;;;;;;;;;4997687;28;20050;-65
2023/11/22 08:45:51;;;;;;;14.48;5.93;;;;;;;;;;4996963;28;20058;-65
2023/11/22 08:48:18;;;;;;;11.98;4.68;;;;;;;;;;4990724;28;20077;-65
2023/11/22 08:50:47;;;;;;;12.23;5.30;;;;;;;;;;5002524;28;20223;-64
2023/11/22 08:53:15;;;;;;;13.00;5.15;;;;;;;;;;4999255;28;20045;-65
2023/11/22 08:55:43;;;;;;;12.85;5.22;;;;;;;;;;4993882;28;20054;-65
2023/11/22 08:58:11;;;;;;;11.52;5.05;;;;;;;;;;4993084;28;20064;-67
2023/11/22 09:00:41;;;;;;;12.55;5.43;;;;;;;;;;5004752;28;20077;-64
2023/11/22 09:03:08;;;;;;;16.58;5.85;;;;;;;;;;5015383;28;20115;-66
2023/11/22 09:05:36;;;;;;;14.60;6.03;;;;;;;;;;4994258;28;20149;-67
2023/11/22 09:08:04;;;;;;;12.68;6.13;;;;;;;;;;4997639;28;20053;-67
2023/11/22 09:10:31;;;;;;;14.60;5.90;;;;;;;;;;4993942;28;20834;-67
2023/11/22 09:12:59;;;;;;;12.02;5.22;;;;;;;;;;4998606;28;20054;-67
2023/11/22 09:15:29;;;;;;;14.48;6.05;;;;;;;;;;4994672;28;20144;-65
2023/11/22 09:17:57;;;;;;;14.52;5.93;;;;;;;;;;5001365;28;20101;-64
2023/11/22 09:20:25;;;;;;;13.95;5.78;;;;;;;;;;4993206;28;20122;-64
2023/11/22 09:22:54;;;;;;;15.95;6.53;;;;;;;;;;5014918;28;20056;-66
2023/11/22 09:25:22;;;;;;;13.30;5.50;;;;;;;;;;4995444;28;20054;-64
2023/11/22 09:27:51;;;;;;;13.35;5.65;;;;;;;;;;4998309;28;20061;-65
2023/11/22 09:30:34;;;;;;;12.45;5.13;;;;;;;;;;4990560;28;20069;-66
2023/11/22 09:33:03;;;;;;;10.38;5.28;;;;;;;;;;5014776;28;20057;-65
2023/11/22 09:35:32;;;;;;;14.95;5.75;;;;;;;;;;4992648;28;20067;-64
2023/11/22 09:38:02;;;;;;;14.48;6.05;;;;;;;;;;4999615;28;20050;-64
2023/11/22 09:40:31;;;;;;;21.60;7.28;;;;;;;;;;4992799;28;20160;-64
2023/11/22 09:42:59;;;;;;;15.25;6.32;;;;;;;;;;5000436;28;20123;-64
2023/11/22 09:45:26;;;;;;;14.07;5.77;;;;;;;;;;4989028;28;20054;-65
2023/11/22 09:47:53;;;;;;;11.95;5.38;;;;;;;;;;5002308;28;20393;-67
2023/11/22 09:50:31;;;;;;;14.15;5.88;;;;;;;;;;4992581;28;20559;-65
2023/11/22 09:53:01;;;;;;;12.35;5.03;;;;;;;;;;5000895;28;20058;-64
2023/11/22 09:55:30;;;;;;;14.55;5.72;;;;;;;;;;4992940;28;20062;-65
2023/11/22 09:57:59;;;;;;;15.98;5.57;;;;;;;;;;4999440;28;20058;-67
2023/11/22 10:00:30;;;;;;;14.45;5.88;;;;;;;;;;4994049;28;20053;-67
2023/11/22 10:02:57;;;;;;;13.98;5.82;;;;;;;;;;4997582;28;20056;-64
2023/11/22 10:05:28;;;;;;;13.00;5.43;;;;;;;;;;4985690;28;20054;-65
2023/11/22 10:07:56;;;;;;;12.38;5.00;;;;;;;;;;5014365;28;20068;-67
2023/11/22 10:10:26;;;;;;;14.48;5.88;;;;;;;;;;4990660;28;20046;-66
2023/11/22 10:12:56;;;;;;;20.83;6.78;;;;;;;;;;4997971;28;20065;-64
2023/11/22 10:15:29;;;;;;;16.65;6.32;;;;;;;;;;4991598;28;20049;-65
2023/11/22 10:17:57;;;;;;;12.57;5.78;;;;;;;;;;4999349;28;20057;-65
2023/11/22 10:20:26;;;;;;;14.15;6.43;;;;;;;;;;4995184;28;20174;-65
2023/11/22 10:22:53;;;;;;;15.68;5.85;;;;;;;;;;5000987;28;20072;-65
2023/11/22 10:25:22;;;;;;;16.10;6.50;;;;;;;;;;4984804;28;20058;-65
2023/11/22 10:27:51;;;;;;;14.23;5.68;;;;;;;;;;4999337;28;20054;-65
2023/11/22 10:30:18;;;;;;;14.40;5.65;;;;;;;;;;5007454;28;20057;-65
2023/11/22 10:32:45;;;;;;;14.93;6.13;;;;;;;;;;4999702;28;20096;-64
2023/11/22 10:35:15;;;;;;;14.13;6.25;;;;;;;;;;4994412;28;20053;-64
2023/11/22 10:37:45;;;;;;;13.73;5.75;;;;;;;;;;4998259;28;20053;-64
2023/11/22 10:40:14;;;;;;;14.82;6.20;;;;;;;;;;4993816;28;20053;-66
2023/11/22 10:42:41;;;;;;;;;;;;;;;;;;4980664;28;20136;-65
2023/11/22 10:45:10;;;;;;;11.48;5.10;;;;;;;;;;4993695;28;19921;-67
2023/11/22 10:47:38;;;;;;;;;;;;;;;;;;5001251;28;20093;-67
2023/11/22 10:50:12;;;;;;;14.43;5.20;;;;;;;;;;4999311;28;19926;-68
2023/11/22 10:52:42;;;;;;;13.90;5.65;;;;;;;;;;4998616;28;20053;-67
2023/11/22 10:55:13;;;;;;;14.02;5.57;;;;;;;;;;4995591;28;20057;-65
2023/11/22 10:57:48;;;;;;;15.23;6.25;;;;;;;;;;5014507;28;20140;-65
2023/11/22 11:00:16;;;;;;;17.08;5.70;;;;;;;;;;4991398;28;20057;-65
2023/11/22 11:02:46;;;;;;;;;;;;;;;;;;4997643;28;20089;-65
2023/11/22 11:05:18;;;;;;;13.63;5.53;;;;;;;;;;4993479;28;19925;-65
2023/11/22 11:07:51;;;;;;;15.50;6.55;;;;;;;;;;4998559;28;20050;-66
2023/11/22 11:10:23;;;;;;;17.83;6.65;;;;;;;;;;4997526;28;20100;-66
2023/11/22 11:12:53;;;;;;;17.65;6.38;;;;;;;;;;4996584;28;20285;-65
2023/11/22 11:15:22;;;;;;;16.83;6.95;;;;;;;;;;4948578;28;20050;-65
2023/11/22 11:17:50;;;;;;;17.15;6.57;;;;;;;;;;4996533;28;20062;-64
2023/11/22 11:20:19;;;;;;;18.87;7.33;;;;;;;;;;4995180;28;20061;-67
2023/11/22 11:22:49;;;;;;;16.40;7.57;;;;;;;;;;4998067;28;20073;-67
2023/11/22 11:25:19;;;;;;;14.48;6.65;;;;;;;;;;4999429;28;20050;-67
2023/11/22 11:27:57;;;;;;;23.05;8.65;;;;;;;;;;5012908;28;20085;-66
2023/11/22 11:30:48;;;;;;;17.83;7.50;;;;;;;;;;4994522;28;20053;-65
2023/11/22 11:33:17;;;;;;;16.23;6.78;;;;;;;;;;4996174;28;20049;-66
2023/11/22 11:35:48;;;;;;;21.55;7.88;;;;;;;;;;4984613;28;20145;-64
2023/11/22 11:38:16;;;;;;;18.98;7.30;;;;;;;;;;4991971;28;20128;-65
2023/11/22 11:40:46;;;;;;;19.58;7.35;;;;;;;;;;5013500;28;20058;-64
2023/11/22 11:43:16;;;;;;;20.30;7.43;;;;;;;;;;5018657;28;20049;-68
2023/11/22 11:45:46;;;;;;;15.10;5.88;;;;;;;;;;4978192;28;20057;-66
2023/11/22 11:48:15;;;;;;;14.25;6.20;;;;;;;;;;4990571;28;20049;-66
2023/11/22 11:50:42;;;;;;;17.08;6.75;;;;;;;;;;4999908;28;20144;-67
2023/11/22 11:53:09;;;;;;;17.80;7.05;;;;;;;;;;4996370;28;20084;-66
2023/11/22 11:55:36;;;;;;;19.55;7.30;;;;;;;;;;4984670;28;20058;-66
2023/11/22 11:58:09;;;;;;;16.08;6.28;;;;;;;;;;4995328;28;20054;-66
2023/11/22 12:00:40;;;;;;;19.00;7.05;;;;;;;;;;4994179;28;20058;-66
2023/11/22 12:03:09;;;;;;;23.80;8.52;;;;;;;;;;4997955;28;20097;-66
2023/11/22 12:05:36;;;;;;;22.92;9.10;;;;;;;;;;4990047;28;20057;-66
2023/11/22 12:08:03;;;;;;;19.45;7.38;;;;;;;;;;4995783;28;20053;-64
2023/11/22 12:10:31;;;;;;;19.13;7.57;;;;;;;;;;4994466;28;20061;-67
2023/11/22 12:12:58;;;;;;;23.13;9.18;;;;;;;;;;4999734;28;20132;-66
2023/11/22 12:15:26;;;;;;;21.38;8.40;;;;;;;;;;4987442;28;20187;-67
2023/11/22 12:17:56;;;;;;;20.58;8.68;;;;;;;;;;5000032;28;20054;-63
2023/11/22 12:20:31;;;;;;;20.90;8.27;;;;;;;;;;4997610;28;20077;-66
2023/11/22 12:22:58;;;;;;;22.55;9.18;;;;;;;;;;5005983;28;20085;-65
2023/11/22 12:25:28;;;;;;;25.40;7.50;;;;;;;;;;4999366;28;20144;-65
2023/11/22 12:28:00;;;;;;;19.02;7.07;;;;;;;;;;5002979;28;20062;-65
2023/11/22 12:30:31;;;;;;;21.42;8.93;;;;;;;;;;4999493;28;20061;-66
2023/11/22 12:33:02;;;;;;;20.70;7.53;;;;;;;;;;5003142;28;20054;-65
2023/11/22 12:35:29;;;;;;;23.45;9.00;;;;;;;;;;4990267;28;20616;-65
2023/11/22 12:37:55;;;;;;;23.63;8.45;;;;;;;;;;5002802;28;20250;-65
2023/11/22 12:40:22;;;;;;;16.25;6.53;;;;;;;;;;4985843;28;20042;-65
2023/11/22 12:42:50;;;;;;;28.02;9.90;;;;;;;;;;5003973;28;20052;-67
2023/11/22 12:45:23;;;;;;;23.60;8.45;;;;;;;;;;4990620;28;20054;-65
2023/11/22 12:47:50;;;;;;;25.42;8.30;;;;;;;;;;5007645;28;20116;-65
2023/11/22 12:50:43;;;;;;;21.17;7.75;;;;;;;;;;4994584;28;20053;-66
2023/11/22 12:53:13;;;;;;;26.23;9.35;;;;;;;;;;5006160;28;20104;-65
2023/11/22 12:55:45;;;;;;;24.90;10.48;;;;;;;;;;4980891;28;20046;-65
2023/11/22 12:58:12;;;;;;;22.10;8.55;;;;;;;;;;4977946;28;20081;-66
2023/11/22 13:00:39;;;;;;;20.08;6.93;;;;;;;;;;4982079;28;20062;-65
2023/11/22 13:03:10;;;;;;;29.98;9.05;;;;;;;;;;4983814;28;20062;-67
2023/11/22 13:05:39;;;;;;;24.00;8.15;;;;;;;;;;4977422;28;20065;-64
2023/11/22 13:08:12;;;;;;;;;;;;;;;;;;4962613;28;20061;-66
2023/11/22 13:10:40;;;;;;;19.77;7.28;;;;;;;;;;4974542;28;19941;-65
2023/11/22 13:13:09;;;;;;;27.48;9.25;;;;;;;;;;4981681;28;20179;-65
2023/11/22 13:15:36;;;;;;;28.38;9.15;;;;;;;;;;4987985;28;20089;-65
2023/11/22 13:18:08;;;;;;;30.77;9.77;;;;;;;;;;5004221;28;20054;-66
2023/11/22 13:20:38;;;;;;;26.90;9.35;;;;;;;;;;5019486;28;20046;-66
2023/11/22 13:23:07;;;;;;;38.45;11.45;;;;;;;;;;5006101;28;20111;-66
2023/11/22 13:25:34;;;;;;;30.48;11.07;;;;;;;;;;4997018;28;20058;-66
2023/11/22 13:28:02;;;;;;;29.27;11.00;;;;;;;;;;5002444;28;20115;-65
2023/11/22 13:30:28;;;;;;;27.92;9.98;;;;;;;;;;4996340;28;20164;-67
2023/11/22 13:32:57;;;;;;;24.38;9.30;;;;;;;;;;5002786;28;20046;-67
2023/11/22 13:35:24;;;;;;;30.27;10.68;;;;;;;;;;4967089;28;20061;-67
2023/11/22 13:37:52;;;;;;;30.55;11.35;;;;;;;;;;5001286;28;20049;-67
2023/11/22 13:40:22;;;;;;;27.25;9.95;;;;;;;;;;5000134;28;20058;-65
2023/11/22 13:42:50;;;;;;;32.78;11.82;;;;;;;;;;5001218;28;20064;-65
2023/11/22 13:45:20;;;;;;;24.05;9.00;;;;;;;;;;4990716;28;20045;-65
2023/11/22 13:47:51;;;;;;;26.05;9.60;;;;;;;;;;5009303;28;20045;-65
2023/11/22 13:50:21;;;;;;;21.63;8.50;;;;;;;;;;5020643;28;20116;-65
2023/11/22 13:52:51;;;;;;;21.25;8.18;;;;;;;;;;5004029;28;20058;-65
2023/11/22 13:55:23;;;;;;;23.88;8.70;;;;;;;;;;4956195;28;20052;-65
2023/11/22 13:57:51;;;;;;;25.20;10.13;;;;;;;;;;4999981;28;20062;-66
2023/11/22 14:00:22;;;;;;;44.15;17.98;;;;;;;;;;4997812;28;20045;-66
2023/11/22 14:02:52;;;;;;;24.88;9.13;;;;;;;;;;5005659;28;20065;-66
2023/11/22 14:05:19;;;;;;;24.00;8.25;;;;;;;;;;5002961;28;20057;-65
2023/11/22 14:07:46;;;;;;;27.02;9.38;;;;;;;;;;5003831;28;20050;-67
2023/11/22 14:10:16;;;;;;;25.58;7.88;;;;;;;;;;4997933;28;20057;-66
2023/11/22 14:12:46;;;;;;;32.90;9.90;;;;;;;;;;5005431;28;20085;-65
2023/11/22 14:15:13;;;;;;;22.63;8.35;;;;;;;;;;4988799;28;20049;-65
2023/11/22 14:17:40;;;;;;;27.60;10.45;;;;;;;;;;5003254;28;20141;-67
2023/11/22 14:20:09;;;;;;;27.13;8.93;;;;;;;;;;5001472;28;20053;-66
2023/11/22 14:22:36;;;;;;;25.00;7.93;;;;;;;;;;5001779;28;20050;-65
2023/11/22 14:25:07;;;;;;;21.00;8.60;;;;;;;;;;4994398;28;20046;-66
2023/11/22 14:27:34;;;;;;;28.48;8.35;;;;;;;;;;5013617;28;20049;-65
2023/11/22 14:30:07;;;;;;;26.45;9.13;;;;;;;;;;5000467;28;20064;-66
2023/11/22 14:32:35;;;;;;;24.40;9.35;;;;;;;;;;4998812;28;20135;-66
2023/11/22 14:35:03;;;;;;;24.63;9.00;;;;;;;;;;4988062;28;20046;-66
2023/11/22 14:37:30;;;;;;;28.13;9.98;;;;;;;;;;5017999;28;20301;-66
2023/11/22 14:39:57;;;;;;;30.92;10.77;;;;;;;;;;5001574;28;20137;-66
2023/11/22 14:42:24;;;;;;;29.17;10.50;;;;;;;;;;4993884;28;20118;-65